sensor_id;sensor_type;location;lat;lon;timestamp;P1;durP1;ratioP1;P2;durP2;ratioP2
47545;SDS011;50104;52.002;4.688;2022-09-01T00:00:20;1.52;;;1.30;;
47545;SDS011;50104;52.002;4.688;2022-09-01T00:05:22;3.28;;;1.38;;
47545;SDS011;50104;52.002;4.688;2022-09-01T00:10:24;3.33;;;1.30;;
47545;SDS011;50104;52.002;4.688;2022-09-01T00:15:25;1.55;;;1.42;;
47545;SDS011;50104;52.002;4.688;2022-09-01T00:20:26;2.20;;;1.40;;
47545;SDS011;50104;52.002;4.688;2022-09-01T00:25:28;3.63;;;1.50;;
47545;SDS011;50104;52.002;4.688;2022-09-01T00:30:29;2.97;;;1.75;;
47545;SDS011;50104;52.002;4.688;2022-09-01T00:35:30;5.03;;;2.10;;
47545;SDS011;50104;52.002;4.688;2022-09-01T00:40:31;4.40;;;1.75;;
47545;SDS011;50104;52.002;4.688;2022-09-01T00:45:32;1.70;;;1.60;;
47545;SDS011;50104;52.002;4.688;2022-09-01T00:50:33;1.52;;;1.40;;
47545;SDS011;50104;52.002;4.688;2022-09-01T00:55:36;2.85;;;1.60;;
47545;SDS011;50104;52.002;4.688;2022-09-01T01:00:37;2.97;;;1.90;;
47545;SDS011;50104;52.002;4.688;2022-09-01T01:05:41;2.05;;;1.58;;
47545;SDS011;50104;52.002;4.688;2022-09-01T01:10:52;2.35;;;1.90;;
47545;SDS011;50104;52.002;4.688;2022-09-01T01:15:53;3.78;;;1.80;;
47545;SDS011;50104;52.002;4.688;2022-09-01T01:20:59;3.00;;;1.85;;
47545;SDS011;50104;52.002;4.688;2022-09-01T01:26:24;4.95;;;1.80;;
47545;SDS011;50104;52.002;4.688;2022-09-01T01:31:25;3.97;;;1.90;;
47545;SDS011;50104;52.002;4.688;2022-09-01T01:36:28;3.05;;;2.05;;
47545;SDS011;50104;52.002;4.688;2022-09-01T01:41:35;2.90;;;1.85;;
47545;SDS011;50104;52.002;4.688;2022-09-01T01:46:45;5.07;;;2.00;;
47545;SDS011;50104;52.002;4.688;2022-09-01T01:51:51;2.40;;;1.85;;
47545;SDS011;50104;52.002;4.688;2022-09-01T01:56:55;3.33;;;2.22;;
47545;SDS011;50104;52.002;4.688;2022-09-01T02:01:57;2.47;;;1.80;;
47545;SDS011;50104;52.002;4.688;2022-09-01T02:06:57;3.83;;;1.98;;
47545;SDS011;50104;52.002;4.688;2022-09-01T02:11:58;2.85;;;1.90;;
47545;SDS011;50104;52.002;4.688;2022-09-01T02:16:59;4.75;;;2.10;;
47545;SDS011;50104;52.002;4.688;2022-09-01T02:22:02;2.40;;;2.20;;
47545;SDS011;50104;52.002;4.688;2022-09-01T02:27:03;6.55;;;2.13;;
47545;SDS011;50104;52.002;4.688;2022-09-01T02:32:05;4.78;;;2.28;;
47545;SDS011;50104;52.002;4.688;2022-09-01T02:37:06;3.78;;;1.95;;
47545;SDS011;50104;52.002;4.688;2022-09-01T02:42:06;2.42;;;2.00;;
47545;SDS011;50104;52.002;4.688;2022-09-01T02:47:07;3.65;;;2.05;;
47545;SDS011;50104;52.002;4.688;2022-09-01T02:52:08;2.33;;;2.13;;
47545;SDS011;50104;52.002;4.688;2022-09-01T02:57:10;4.25;;;2.53;;
47545;SDS011;50104;52.002;4.688;2022-09-01T03:02:11;4.50;;;2.60;;
47545;SDS011;50104;52.002;4.688;2022-09-01T03:07:12;4.28;;;2.47;;
47545;SDS011;50104;52.002;4.688;2022-09-01T03:12:13;2.80;;;2.30;;
47545;SDS011;50104;52.002;4.688;2022-09-01T03:17:14;4.10;;;2.55;;
47545;SDS011;50104;52.002;4.688;2022-09-01T03:22:15;3.10;;;2.20;;
47545;SDS011;50104;52.002;4.688;2022-09-01T03:27:16;4.35;;;2.25;;
47545;SDS011;50104;52.002;4.688;2022-09-01T03:32:16;5.45;;;1.90;;
47545;SDS011;50104;52.002;4.688;2022-09-01T03:37:18;3.05;;;2.58;;
47545;SDS011;50104;52.002;4.688;2022-09-01T03:42:19;3.63;;;2.30;;
47545;SDS011;50104;52.002;4.688;2022-09-01T03:47:22;4.93;;;2.35;;
47545;SDS011;50104;52.002;4.688;2022-09-01T03:52:23;3.28;;;2.40;;
47545;SDS011;50104;52.002;4.688;2022-09-01T03:57:29;2.45;;;2.15;;
47545;SDS011;50104;52.002;4.688;2022-09-01T04:02:29;3.65;;;2.17;;
47545;SDS011;50104;52.002;4.688;2022-09-01T04:07:30;3.75;;;2.33;;
47545;SDS011;50104;52.002;4.688;2022-09-01T04:12:31;3.35;;;2.30;;
47545;SDS011;50104;52.002;4.688;2022-09-01T04:17:32;3.45;;;2.53;;
47545;SDS011;50104;52.002;4.688;2022-09-01T04:22:52;2.75;;;2.03;;
47545;SDS011;50104;52.002;4.688;2022-09-01T04:27:54;3.67;;;2.78;;
47545;SDS011;50104;52.002;4.688;2022-09-01T04:32:56;2.58;;;2.38;;
47545;SDS011;50104;52.002;4.688;2022-09-01T04:37:57;3.80;;;2.55;;
47545;SDS011;50104;52.002;4.688;2022-09-01T04:42:59;6.28;;;2.85;;
47545;SDS011;50104;52.002;4.688;2022-09-01T04:48:04;4.28;;;2.53;;
47545;SDS011;50104;52.002;4.688;2022-09-01T04:53:05;2.60;;;2.17;;
47545;SDS011;50104;52.002;4.688;2022-09-01T04:58:11;3.83;;;2.20;;
47545;SDS011;50104;52.002;4.688;2022-09-01T05:03:16;3.80;;;2.10;;
47545;SDS011;50104;52.002;4.688;2022-09-01T05:08:20;3.92;;;2.30;;
47545;SDS011;50104;52.002;4.688;2022-09-01T05:13:22;4.57;;;2.10;;
47545;SDS011;50104;52.002;4.688;2022-09-01T05:18:23;4.10;;;2.00;;
47545;SDS011;50104;52.002;4.688;2022-09-01T05:23:24;2.65;;;2.38;;
47545;SDS011;50104;52.002;4.688;2022-09-01T05:28:26;3.53;;;2.00;;
47545;SDS011;50104;52.002;4.688;2022-09-01T05:33:28;2.63;;;2.15;;
47545;SDS011;50104;52.002;4.688;2022-09-01T05:38:28;2.45;;;2.03;;
47545;SDS011;50104;52.002;4.688;2022-09-01T05:43:30;2.55;;;2.00;;
47545;SDS011;50104;52.002;4.688;2022-09-01T05:48:32;3.33;;;2.30;;
47545;SDS011;50104;52.002;4.688;2022-09-01T05:53:38;3.65;;;2.33;;
47545;SDS011;50104;52.002;4.688;2022-09-01T05:58:39;4.97;;;2.40;;
47545;SDS011;50104;52.002;4.688;2022-09-01T06:03:43;5.50;;;2.15;;
47545;SDS011;50104;52.002;4.688;2022-09-01T06:08:43;3.28;;;2.25;;
47545;SDS011;50104;52.002;4.688;2022-09-01T06:13:48;3.65;;;2.55;;
47545;SDS011;50104;52.002;4.688;2022-09-01T06:18:51;4.43;;;2.88;;
47545;SDS011;50104;52.002;4.688;2022-09-01T06:23:53;5.75;;;2.65;;
47545;SDS011;50104;52.002;4.688;2022-09-01T06:28:59;7.15;;;2.50;;
47545;SDS011;50104;52.002;4.688;2022-09-01T06:34:04;3.97;;;2.28;;
47545;SDS011;50104;52.002;4.688;2022-09-01T06:39:08;4.57;;;2.65;;
47545;SDS011;50104;52.002;4.688;2022-09-01T06:44:14;3.80;;;2.60;;
47545;SDS011;50104;52.002;4.688;2022-09-01T06:49:21;2.83;;;2.55;;
47545;SDS011;50104;52.002;4.688;2022-09-01T06:54:31;4.78;;;2.50;;
47545;SDS011;50104;52.002;4.688;2022-09-01T06:59:42;3.95;;;2.25;;
47545;SDS011;50104;52.002;4.688;2022-09-01T07:04:43;2.92;;;2.30;;
47545;SDS011;50104;52.002;4.688;2022-09-01T07:09:44;6.90;;;2.30;;
47545;SDS011;50104;52.002;4.688;2022-09-01T07:14:46;6.35;;;2.50;;
47545;SDS011;50104;52.002;4.688;2022-09-01T07:19:48;6.85;;;2.33;;
47545;SDS011;50104;52.002;4.688;2022-09-01T07:24:49;2.95;;;2.17;;
47545;SDS011;50104;52.002;4.688;2022-09-01T07:29:56;4.30;;;2.30;;
47545;SDS011;50104;52.002;4.688;2022-09-01T07:34:57;4.05;;;2.30;;
47545;SDS011;50104;52.002;4.688;2022-09-01T07:39:57;2.97;;;2.10;;
47545;SDS011;50104;52.002;4.688;2022-09-01T07:44:58;2.40;;;2.20;;
47545;SDS011;50104;52.002;4.688;2022-09-01T07:49:59;2.58;;;2.35;;
47545;SDS011;50104;52.002;4.688;2022-09-01T07:55:01;2.95;;;2.10;;
47545;SDS011;50104;52.002;4.688;2022-09-01T08:00:04;2.65;;;2.40;;
47545;SDS011;50104;52.002;4.688;2022-09-01T08:05:06;2.85;;;2.17;;
47545;SDS011;50104;52.002;4.688;2022-09-01T08:10:09;4.00;;;1.92;;
47545;SDS011;50104;52.002;4.688;2022-09-01T08:15:10;3.40;;;1.83;;
47545;SDS011;50104;52.002;4.688;2022-09-01T08:20:11;2.88;;;1.90;;
47545;SDS011;50104;52.002;4.688;2022-09-01T08:25:12;4.28;;;1.92;;
47545;SDS011;50104;52.002;4.688;2022-09-01T08:30:14;2.75;;;1.95;;
47545;SDS011;50104;52.002;4.688;2022-09-01T08:35:15;2.10;;;1.83;;
47545;SDS011;50104;52.002;4.688;2022-09-01T08:40:16;3.13;;;1.98;;
47545;SDS011;50104;52.002;4.688;2022-09-01T08:45:33;4.30;;;1.60;;
47545;SDS011;50104;52.002;4.688;2022-09-01T08:50:53;3.15;;;1.88;;
47545;SDS011;50104;52.002;4.688;2022-09-01T08:56:05;4.20;;;2.45;;
47545;SDS011;50104;52.002;4.688;2022-09-01T09:01:14;2.25;;;1.80;;
47545;SDS011;50104;52.002;4.688;2022-09-01T09:12:27;6.30;;;2.08;;
47545;SDS011;50104;52.002;4.688;2022-09-01T09:17:32;5.25;;;1.63;;
47545;SDS011;50104;52.002;4.688;2022-09-01T09:22:43;2.97;;;1.42;;
47545;SDS011;50104;52.002;4.688;2022-09-01T09:27:48;3.90;;;2.25;;
47545;SDS011;50104;52.002;4.688;2022-09-01T09:33:00;2.58;;;1.50;;
47545;SDS011;50104;52.002;4.688;2022-09-01T09:43:20;4.00;;;1.48;;
47545;SDS011;50104;52.002;4.688;2022-09-01T09:48:29;3.03;;;1.15;;
47545;SDS011;50104;52.002;4.688;2022-09-01T09:53:34;4.25;;;1.25;;
47545;SDS011;50104;52.002;4.688;2022-09-01T09:58:36;4.18;;;1.25;;
47545;SDS011;50104;52.002;4.688;2022-09-01T10:03:44;2.60;;;1.00;;
47545;SDS011;50104;52.002;4.688;2022-09-01T10:08:49;3.42;;;0.80;;
47545;SDS011;50104;52.002;4.688;2022-09-01T10:13:51;3.55;;;0.90;;
47545;SDS011;50104;52.002;4.688;2022-09-01T10:18:53;3.15;;;0.98;;
47545;SDS011;50104;52.002;4.688;2022-09-01T10:24:02;2.90;;;1.20;;
47545;SDS011;50104;52.002;4.688;2022-09-01T10:29:14;6.32;;;1.17;;
47545;SDS011;50104;52.002;4.688;2022-09-01T10:34:21;1.27;;;0.70;;
47545;SDS011;50104;52.002;4.688;2022-09-01T10:39:23;3.28;;;0.90;;
47545;SDS011;50104;52.002;4.688;2022-09-01T10:44:28;1.92;;;0.98;;
47545;SDS011;50104;52.002;4.688;2022-09-01T10:59:46;2.65;;;1.02;;
47545;SDS011;50104;52.002;4.688;2022-09-01T11:10:13;2.45;;;0.80;;
47545;SDS011;50104;52.002;4.688;2022-09-01T11:15:43;1.23;;;0.90;;
47545;SDS011;50104;52.002;4.688;2022-09-01T11:20:44;2.70;;;0.63;;
47545;SDS011;50104;52.002;4.688;2022-09-01T11:25:54;3.20;;;1.08;;
47545;SDS011;50104;52.002;4.688;2022-09-01T11:46:39;1.90;;;0.50;;
47545;SDS011;50104;52.002;4.688;2022-09-01T11:51:44;1.65;;;0.82;;
47545;SDS011;50104;52.002;4.688;2022-09-01T11:56:46;4.00;;;1.02;;
47545;SDS011;50104;52.002;4.688;2022-09-01T12:01:47;1.83;;;0.80;;
47545;SDS011;50104;52.002;4.688;2022-09-01T12:07:07;0.77;;;0.70;;
47545;SDS011;50104;52.002;4.688;2022-09-01T12:17:38;1.70;;;0.80;;
47545;SDS011;50104;52.002;4.688;2022-09-01T12:22:41;1.58;;;0.60;;
47545;SDS011;50104;52.002;4.688;2022-09-01T12:27:42;2.30;;;0.60;;
47545;SDS011;50104;52.002;4.688;2022-09-01T12:32:43;0.73;;;0.60;;
47545;SDS011;50104;52.002;4.688;2022-09-01T12:37:45;2.55;;;0.73;;
47545;SDS011;50104;52.002;4.688;2022-09-01T12:42:49;2.67;;;0.70;;
47545;SDS011;50104;52.002;4.688;2022-09-01T12:47:51;3.53;;;0.80;;
47545;SDS011;50104;52.002;4.688;2022-09-01T12:52:56;2.53;;;1.13;;
47545;SDS011;50104;52.002;4.688;2022-09-01T12:58:02;2.50;;;0.88;;
47545;SDS011;50104;52.002;4.688;2022-09-01T13:03:11;0.63;;;0.60;;
47545;SDS011;50104;52.002;4.688;2022-09-01T13:08:20;2.28;;;0.75;;
47545;SDS011;50104;52.002;4.688;2022-09-01T13:13:28;2.63;;;0.88;;
47545;SDS011;50104;52.002;4.688;2022-09-01T13:18:29;1.58;;;0.60;;
47545;SDS011;50104;52.002;4.688;2022-09-01T13:23:30;3.38;;;0.73;;
47545;SDS011;50104;52.002;4.688;2022-09-01T13:28:31;2.28;;;0.90;;
47545;SDS011;50104;52.002;4.688;2022-09-01T13:33:33;1.00;;;0.50;;
47545;SDS011;50104;52.002;4.688;2022-09-01T13:38:35;3.88;;;1.00;;
47545;SDS011;50104;52.002;4.688;2022-09-01T13:43:38;0.70;;;0.50;;
47545;SDS011;50104;52.002;4.688;2022-09-01T13:48:39;2.25;;;0.60;;
47545;SDS011;50104;52.002;4.688;2022-09-01T13:53:40;2.15;;;0.55;;
47545;SDS011;50104;52.002;4.688;2022-09-01T13:58:40;2.85;;;0.50;;
47545;SDS011;50104;52.002;4.688;2022-09-01T14:03:41;3.70;;;0.60;;
47545;SDS011;50104;52.002;4.688;2022-09-01T14:08:43;1.70;;;0.50;;
47545;SDS011;50104;52.002;4.688;2022-09-01T14:13:44;2.05;;;0.75;;
47545;SDS011;50104;52.002;4.688;2022-09-01T14:18:46;1.90;;;0.52;;
47545;SDS011;50104;52.002;4.688;2022-09-01T14:23:47;0.50;;;0.50;;
47545;SDS011;50104;52.002;4.688;2022-09-01T14:28:49;1.77;;;0.70;;
47545;SDS011;50104;52.002;4.688;2022-09-01T14:33:49;3.60;;;0.40;;
47545;SDS011;50104;52.002;4.688;2022-09-01T14:38:51;0.40;;;0.40;;
47545;SDS011;50104;52.002;4.688;2022-09-01T14:43:53;3.03;;;0.68;;
47545;SDS011;50104;52.002;4.688;2022-09-01T14:49:01;1.80;;;0.60;;
47545;SDS011;50104;52.002;4.688;2022-09-01T14:54:03;3.90;;;0.50;;
47545;SDS011;50104;52.002;4.688;2022-09-01T14:59:04;5.25;;;0.82;;
47545;SDS011;50104;52.002;4.688;2022-09-01T15:04:07;2.00;;;0.60;;
47545;SDS011;50104;52.002;4.688;2022-09-01T15:09:09;5.15;;;0.60;;
47545;SDS011;50104;52.002;4.688;2022-09-01T15:14:09;1.08;;;0.43;;
47545;SDS011;50104;52.002;4.688;2022-09-01T15:19:11;2.92;;;0.73;;
47545;SDS011;50104;52.002;4.688;2022-09-01T15:24:13;0.65;;;0.50;;
47545;SDS011;50104;52.002;4.688;2022-09-01T15:29:13;2.25;;;0.65;;
47545;SDS011;50104;52.002;4.688;2022-09-01T15:34:14;1.40;;;0.77;;
47545;SDS011;50104;52.002;4.688;2022-09-01T15:39:17;2.38;;;0.80;;
47545;SDS011;50104;52.002;4.688;2022-09-01T15:44:18;2.22;;;0.85;;
47545;SDS011;50104;52.002;4.688;2022-09-01T15:49:19;0.63;;;0.60;;
47545;SDS011;50104;52.002;4.688;2022-09-01T15:54:20;3.17;;;0.60;;
47545;SDS011;50104;52.002;4.688;2022-09-01T15:59:21;1.67;;;0.60;;
47545;SDS011;50104;52.002;4.688;2022-09-01T16:04:22;1.60;;;0.60;;
47545;SDS011;50104;52.002;4.688;2022-09-01T16:09:23;2.78;;;0.55;;
47545;SDS011;50104;52.002;4.688;2022-09-01T16:14:25;5.75;;;0.98;;
47545;SDS011;50104;52.002;4.688;2022-09-01T16:24:42;1.92;;;0.65;;
47545;SDS011;50104;52.002;4.688;2022-09-01T16:29:54;2.80;;;0.68;;
47545;SDS011;50104;52.002;4.688;2022-09-01T16:34:58;3.28;;;1.30;;
47545;SDS011;50104;52.002;4.688;2022-09-01T16:40:09;5.47;;;0.90;;
47545;SDS011;50104;52.002;4.688;2022-09-01T16:45:43;3.58;;;1.30;;
47545;SDS011;50104;52.002;4.688;2022-09-01T16:56:27;2.83;;;1.10;;
47545;SDS011;50104;52.002;4.688;2022-09-01T17:01:47;5.00;;;1.40;;
47545;SDS011;50104;52.002;4.688;2022-09-01T17:07:27;2.35;;;1.10;;
47545;SDS011;50104;52.002;4.688;2022-09-01T17:12:45;3.08;;;1.23;;
47545;SDS011;50104;52.002;4.688;2022-09-01T17:18:39;3.53;;;0.90;;
47545;SDS011;50104;52.002;4.688;2022-09-01T17:23:47;1.95;;;1.05;;
47545;SDS011;50104;52.002;4.688;2022-09-01T17:39:40;4.93;;;0.60;;
47545;SDS011;50104;52.002;4.688;2022-09-01T17:44:55;2.10;;;0.68;;
47545;SDS011;50104;52.002;4.688;2022-09-01T17:50:19;2.70;;;0.70;;
47545;SDS011;50104;52.002;4.688;2022-09-01T18:01:23;1.45;;;0.75;;
47545;SDS011;50104;52.002;4.688;2022-09-01T18:06:58;13.57;;;2.38;;
47545;SDS011;50104;52.002;4.688;2022-09-01T18:12:07;3.40;;;1.27;;
47545;SDS011;50104;52.002;4.688;2022-09-01T18:22:36;2.10;;;0.75;;
47545;SDS011;50104;52.002;4.688;2022-09-01T18:27:44;1.48;;;0.90;;
47545;SDS011;50104;52.002;4.688;2022-09-01T18:32:54;3.22;;;0.80;;
47545;SDS011;50104;52.002;4.688;2022-09-01T18:54:15;3.70;;;1.30;;
47545;SDS011;50104;52.002;4.688;2022-09-01T18:59:47;10.18;;;1.20;;
47545;SDS011;50104;52.002;4.688;2022-09-01T19:10:43;4.95;;;1.20;;
47545;SDS011;50104;52.002;4.688;2022-09-01T19:16:38;4.28;;;1.40;;
47545;SDS011;50104;52.002;4.688;2022-09-01T19:21:48;2.53;;;1.15;;
47545;SDS011;50104;52.002;4.688;2022-09-01T19:26:56;4.67;;;1.33;;
47545;SDS011;50104;52.002;4.688;2022-09-01T19:32:09;3.03;;;1.40;;
47545;SDS011;50104;52.002;4.688;2022-09-01T19:37:17;3.97;;;1.30;;
47545;SDS011;50104;52.002;4.688;2022-09-01T19:47:49;3.72;;;1.30;;
47545;SDS011;50104;52.002;4.688;2022-09-01T20:03:54;3.85;;;1.63;;
47545;SDS011;50104;52.002;4.688;2022-09-01T20:09:11;1.70;;;1.30;;
47545;SDS011;50104;52.002;4.688;2022-09-01T20:20:15;10.40;;;1.85;;
47545;SDS011;50104;52.002;4.688;2022-09-01T20:25:19;5.50;;;1.45;;
47545;SDS011;50104;52.002;4.688;2022-09-01T20:30:28;5.00;;;1.50;;
47545;SDS011;50104;52.002;4.688;2022-09-01T20:41:04;3.25;;;1.38;;
47545;SDS011;50104;52.002;4.688;2022-09-01T20:46:16;2.10;;;1.20;;
47545;SDS011;50104;52.002;4.688;2022-09-01T20:51:27;3.83;;;1.45;;
47545;SDS011;50104;52.002;4.688;2022-09-01T20:57:12;2.88;;;1.35;;
47545;SDS011;50104;52.002;4.688;2022-09-01T21:24:39;1.10;;;1.10;;
47545;SDS011;50104;52.002;4.688;2022-09-01T21:35:03;4.10;;;1.55;;
47545;SDS011;50104;52.002;4.688;2022-09-01T21:40:07;3.53;;;1.73;;
47545;SDS011;50104;52.002;4.688;2022-09-01T21:45:11;1.73;;;1.30;;
47545;SDS011;50104;52.002;4.688;2022-09-01T21:50:15;3.20;;;1.52;;
47545;SDS011;50104;52.002;4.688;2022-09-01T21:55:19;4.53;;;1.70;;
47545;SDS011;50104;52.002;4.688;2022-09-01T22:00:23;2.88;;;2.00;;
47545;SDS011;50104;52.002;4.688;2022-09-01T22:05:27;2.33;;;1.73;;
47545;SDS011;50104;52.002;4.688;2022-09-01T22:10:30;2.92;;;0.98;;
47545;SDS011;50104;52.002;4.688;2022-09-01T22:15:30;3.90;;;1.38;;
47545;SDS011;50104;52.002;4.688;2022-09-01T22:20:31;1.67;;;1.20;;
47545;SDS011;50104;52.002;4.688;2022-09-01T22:25:32;3.72;;;1.40;;
47545;SDS011;50104;52.002;4.688;2022-09-01T22:30:34;5.70;;;1.10;;
47545;SDS011;50104;52.002;4.688;2022-09-01T22:35:38;1.35;;;1.20;;
47545;SDS011;50104;52.002;4.688;2022-09-01T22:40:45;4.38;;;0.80;;
47545;SDS011;50104;52.002;4.688;2022-09-01T22:45:50;5.90;;;0.88;;
47545;SDS011;50104;52.002;4.688;2022-09-01T22:50:52;2.15;;;0.90;;
47545;SDS011;50104;52.002;4.688;2022-09-01T22:55:52;3.58;;;1.58;;
47545;SDS011;50104;52.002;4.688;2022-09-01T23:00:54;1.45;;;0.93;;
47545;SDS011;50104;52.002;4.688;2022-09-01T23:06:02;1.10;;;1.00;;
47545;SDS011;50104;52.002;4.688;2022-09-01T23:11:09;1.60;;;0.90;;
47545;SDS011;50104;52.002;4.688;2022-09-01T23:16:12;2.42;;;0.90;;
47545;SDS011;50104;52.002;4.688;2022-09-01T23:21:15;1.05;;;0.90;;
47545;SDS011;50104;52.002;4.688;2022-09-01T23:26:20;2.73;;;0.90;;
47545;SDS011;50104;52.002;4.688;2022-09-01T23:31:23;3.88;;;1.20;;
47545;SDS011;50104;52.002;4.688;2022-09-01T23:36:28;2.27;;;1.23;;
47545;SDS011;50104;52.002;4.688;2022-09-01T23:41:30;2.00;;;0.90;;
47545;SDS011;50104;52.002;4.688;2022-09-01T23:46:33;2.05;;;0.90;;
47545;SDS011;50104;52.002;4.688;2022-09-01T23:51:42;1.15;;;0.77;;
47545;SDS011;50104;52.002;4.688;2022-09-01T23:56:45;5.70;;;0.90;;
